N125RH KFLL-KPWK
Flight info
| Callsign | N125RH |
|---|---|
| Flight time | N/A |
| Altitude | 43000 |
| Route | FRSBE2 STYMY Q77 MJAMS/N0486F450 Q77 SHRKS/N0490F430 VXV IIU MACES BVT VINNE BRAVE EXARR HIGUH |
| Aircraft | C750/M-SBDE3FGHRWXY/S |
Departure
| Time | 2026-05-04 16:33 |
|---|---|
| Airport | Fort Lauderdale Hollywood International Airport (KFLL) |
Arrival
| Time | N/A |
|---|---|
| Airport | Chicago Executive Airport (KPWK) |
| Time | Latitude | Longitude | Altitude | Speed | Heading |
|---|---|---|---|---|---|
| 2026-05-04 16:20 | 26.07286 | -80.15619 | 12 ft | 0 kts | 43° |
| 2026-05-04 16:29 | 26.07391 | -80.15665 | 12 ft | 11 kts | 316° |
| 2026-05-04 16:30 | 26.07567 | -80.15912 | 13 ft | 11 kts | 270° |
| 2026-05-04 16:31 | 26.07568 | -80.16134 | 13 ft | 15 kts | 270° |
| 2026-05-04 16:31 | 26.07635 | -80.16304 | 16 ft | 3 kts | 0° |
| 2026-05-04 16:32 | 26.07693 | -80.16223 | 17 ft | 10 kts | 90° |
| 2026-05-04 16:33 | 26.07690 | -80.14588 | 298 ft | 161 kts | 89° |
| 2026-05-04 16:33 | 26.07733 | -80.11796 | 1090 ft | 213 kts | 86° |
| 2026-05-04 16:34 | 26.08560 | -80.08207 | 2106 ft | 252 kts | 57° |
| 2026-05-04 16:34 | 26.09819 | -80.06884 | 3317 ft | 252 kts | 31° |
| 2026-05-04 16:35 | 26.14950 | -80.04872 | 6197 ft | 271 kts | 8° |
| 2026-05-04 16:35 | 26.20430 | -80.06519 | 9079 ft | 283 kts | 337° |
| 2026-05-04 16:36 | 26.22100 | -80.07680 | 9888 ft | 286 kts | 312° |
| 2026-05-04 16:36 | 26.24004 | -80.11718 | 10817 ft | 319 kts | 288° |
| 2026-05-04 16:37 | 26.25794 | -80.16564 | 11931 ft | 342 kts | 298° |
| 2026-05-04 16:37 | 26.27064 | -80.18724 | 12716 ft | 325 kts | 301° |
| 2026-05-04 16:37 | 26.29314 | -80.22648 | 12994 ft | 286 kts | 297° |
| 2026-05-04 16:38 | 26.31446 | -80.26438 | 13008 ft | 289 kts | 298° |
| 2026-05-04 16:39 | 26.34667 | -80.32106 | 13009 ft | 290 kts | 298° |
| 2026-05-04 16:39 | 26.36823 | -80.35911 | 13015 ft | 290 kts | 298° |
| 2026-05-04 16:40 | 26.38978 | -80.39716 | 13014 ft | 289 kts | 298° |
| 2026-05-04 16:40 | 26.41121 | -80.43506 | 13018 ft | 289 kts | 298° |
| 2026-05-04 16:41 | 26.43406 | -80.47558 | 13065 ft | 335 kts | 299° |
| 2026-05-04 16:41 | 26.47373 | -80.54303 | 14895 ft | 357 kts | 308° |
| 2026-05-04 16:42 | 26.54062 | -80.58257 | 16948 ft | 381 kts | 339° |
| 2026-05-04 16:43 | 26.59214 | -80.59882 | 18335 ft | 388 kts | 338° |
| 2026-05-04 16:43 | 26.64491 | -80.61566 | 19763 ft | 395 kts | 338° |
| 2026-05-04 16:43 | 26.67146 | -80.62405 | 20484 ft | 398 kts | 338° |
| 2026-05-04 16:44 | 26.77973 | -80.65853 | 23174 ft | 411 kts | 338° |
| 2026-05-04 16:45 | 26.83528 | -80.67625 | 24457 ft | 417 kts | 338° |
| 2026-05-04 16:46 | 26.91974 | -80.70358 | 26281 ft | 423 kts | 335° |
| 2026-05-04 16:46 | 26.97589 | -80.72499 | 27421 ft | 428 kts | 334° |
| 2026-05-04 16:47 | 27.03308 | -80.74648 | 28567 ft | 432 kts | 334° |
| 2026-05-04 16:47 | 27.09007 | -80.76813 | 29600 ft | 437 kts | 334° |
| 2026-05-04 16:48 | 27.17723 | -80.80115 | 30961 ft | 445 kts | 333° |
| 2026-05-04 16:48 | 27.20702 | -80.81246 | 31547 ft | 444 kts | 333° |
| 2026-05-04 16:49 | 27.26532 | -80.83453 | 32753 ft | 440 kts | 333° |
| 2026-05-04 16:49 | 27.32322 | -80.85665 | 33875 ft | 438 kts | 333° |
| 2026-05-04 16:50 | 27.38032 | -80.88013 | 34932 ft | 436 kts | 331° |
| 2026-05-04 16:50 | 27.43606 | -80.90305 | 35930 ft | 436 kts | 331° |
| 2026-05-04 16:51 | 27.49311 | -80.92652 | 36872 ft | 438 kts | 331° |
| 2026-05-04 16:51 | 27.52184 | -80.93839 | 37358 ft | 438 kts | 331° |
| 2026-05-04 16:51 | 27.57886 | -80.96184 | 38525 ft | 433 kts | 330° |
| 2026-05-04 16:52 | 27.63546 | -80.98525 | 39445 ft | 434 kts | 330° |
| 2026-05-04 16:52 | 27.66385 | -80.99697 | 39878 ft | 434 kts | 330° |
| 2026-05-04 16:53 | 27.72055 | -81.02036 | 40870 ft | 432 kts | 330° |
| 2026-05-04 16:53 | 27.80501 | -81.05535 | 42252 ft | 429 kts | 329° |
| 2026-05-04 16:54 | 27.83270 | -81.06682 | 42672 ft | 428 kts | 329° |
| 2026-05-04 16:55 | 27.93727 | -81.11033 | 43113 ft | 452 kts | 329° |
| 2026-05-04 16:55 | 27.99750 | -81.13529 | 43110 ft | 467 kts | 329° |
| 2026-05-04 16:56 | 28.14862 | -81.20903 | 43124 ft | 473 kts | 326° |
| 2026-05-04 16:57 | 28.23889 | -81.25573 | 43127 ft | 471 kts | 326° |
| 2026-05-04 16:58 | 28.35811 | -81.31729 | 43119 ft | 473 kts | 326° |
| 2026-05-04 17:00 | 28.53809 | -81.40921 | 43124 ft | 473 kts | 326° |
| 2026-05-04 17:01 | 28.68816 | -81.48623 | 43130 ft | 473 kts | 326° |
| 2026-05-04 17:02 | 28.80868 | -81.54825 | 43132 ft | 473 kts | 326° |
| 2026-05-04 17:03 | 28.89904 | -81.59424 | 43109 ft | 478 kts | 329° |
| 2026-05-04 17:03 | 28.99945 | -81.61593 | 43137 ft | 501 kts | 345° |
| 2026-05-04 17:04 | 29.13897 | -81.62870 | 43144 ft | 502 kts | 345° |
| 2026-05-04 17:05 | 29.27849 | -81.64149 | 43131 ft | 501 kts | 345° |
| 2026-05-04 17:06 | 29.38285 | -81.65106 | 43128 ft | 502 kts | 345° |
| 2026-05-04 17:07 | 29.47385 | -81.65944 | 43117 ft | 502 kts | 345° |
| 2026-05-04 17:07 | 29.55579 | -81.66699 | 43129 ft | 502 kts | 345° |
| 2026-05-04 17:08 | 29.66040 | -81.67664 | 43121 ft | 502 kts | 345° |
| 2026-05-04 17:09 | 29.73001 | -81.68308 | 43121 ft | 501 kts | 345° |
| 2026-05-04 17:09 | 29.79858 | -81.68944 | 43117 ft | 499 kts | 345° |
| 2026-05-04 17:10 | 29.97253 | -81.70560 | 43120 ft | 500 kts | 345° |
| 2026-05-04 17:11 | 30.04150 | -81.71202 | 43133 ft | 500 kts | 345° |
| 2026-05-04 17:12 | 30.14570 | -81.72174 | 43141 ft | 501 kts | 345° |
| 2026-05-04 17:13 | 30.31966 | -81.73801 | 43140 ft | 501 kts | 345° |
| 2026-05-04 17:14 | 30.45880 | -81.75107 | 43137 ft | 501 kts | 345° |
| 2026-05-04 17:15 | 30.56327 | -81.76089 | 43130 ft | 501 kts | 345° |
| 2026-05-04 17:15 | 30.63183 | -81.77096 | 43141 ft | 489 kts | 337° |
| 2026-05-04 17:16 | 30.69583 | -81.79420 | 43147 ft | 484 kts | 332° |
| 2026-05-04 17:17 | 30.82385 | -81.84272 | 43143 ft | 482 kts | 332° |
| 2026-05-04 17:18 | 30.95223 | -81.89156 | 43144 ft | 486 kts | 333° |
| 2026-05-04 17:19 | 31.06964 | -81.93638 | 43140 ft | 484 kts | 333° |
| 2026-05-04 17:20 | 31.19818 | -81.98558 | 43140 ft | 483 kts | 333° |
| 2026-05-04 17:20 | 31.29301 | -82.02200 | 43139 ft | 483 kts | 333° |
| 2026-05-04 17:21 | 31.42105 | -82.07127 | 43138 ft | 482 kts | 333° |
| 2026-05-04 17:22 | 31.48441 | -82.09570 | 43139 ft | 482 kts | 333° |
| 2026-05-04 17:23 | 31.61227 | -82.14510 | 43139 ft | 484 kts | 333° |
| 2026-05-04 17:24 | 31.70821 | -82.18226 | 43135 ft | 482 kts | 333° |
| 2026-05-04 17:25 | 31.83544 | -82.23167 | 43129 ft | 483 kts | 333° |
| 2026-05-04 17:26 | 31.96336 | -82.28149 | 43126 ft | 483 kts | 333° |
| 2026-05-04 17:27 | 32.12306 | -82.34391 | 43122 ft | 484 kts | 333° |
| 2026-05-04 17:28 | 32.25098 | -82.39407 | 43113 ft | 483 kts | 333° |
| 2026-05-04 17:29 | 32.44231 | -82.46938 | 43111 ft | 484 kts | 333° |
| 2026-05-04 17:31 | 32.60214 | -82.53254 | 43109 ft | 485 kts | 333° |
| 2026-05-04 17:32 | 32.76219 | -82.59603 | 43113 ft | 485 kts | 333° |
| 2026-05-04 17:33 | 32.89011 | -82.64694 | 43128 ft | 486 kts | 334° |
| 2026-05-04 17:34 | 33.01848 | -82.69820 | 43122 ft | 486 kts | 334° |
| 2026-05-04 17:35 | 33.17948 | -82.76268 | 43129 ft | 487 kts | 334° |
| 2026-05-04 17:36 | 33.24386 | -82.78855 | 43126 ft | 488 kts | 334° |
| 2026-05-04 17:36 | 33.30864 | -82.81462 | 43133 ft | 487 kts | 334° |
| 2026-05-04 17:37 | 33.37250 | -82.84035 | 43131 ft | 486 kts | 334° |
| 2026-05-04 17:37 | 33.43703 | -82.86639 | 43128 ft | 486 kts | 334° |
| 2026-05-04 17:38 | 33.50140 | -82.89248 | 43113 ft | 487 kts | 334° |
| 2026-05-04 17:38 | 33.56616 | -82.91867 | 43120 ft | 487 kts | 334° |
| 2026-05-04 17:39 | 33.66338 | -82.95813 | 43104 ft | 487 kts | 334° |
| 2026-05-04 17:39 | 33.72771 | -82.98427 | 43100 ft | 487 kts | 334° |
| 2026-05-04 17:40 | 33.79197 | -83.01043 | 43103 ft | 487 kts | 334° |
| 2026-05-04 17:40 | 33.85671 | -83.03684 | 43100 ft | 488 kts | 334° |
| 2026-05-04 17:41 | 33.92149 | -83.06330 | 43099 ft | 487 kts | 334° |
| 2026-05-04 17:41 | 33.97527 | -83.08529 | 43099 ft | 488 kts | 334° |
| 2026-05-04 17:42 | 34.03995 | -83.11179 | 43099 ft | 489 kts | 334° |
| 2026-05-04 17:42 | 34.10463 | -83.13832 | 43101 ft | 490 kts | 334° |
| 2026-05-04 17:43 | 34.16994 | -83.16517 | 43100 ft | 490 kts | 334° |
| 2026-05-04 17:43 | 34.23435 | -83.19168 | 43095 ft | 489 kts | 334° |
| 2026-05-04 17:44 | 34.29922 | -83.21843 | 43094 ft | 489 kts | 334° |
| 2026-05-04 17:44 | 34.36435 | -83.24533 | 43091 ft | 490 kts | 334° |
| 2026-05-04 17:45 | 34.43193 | -83.27329 | 43092 ft | 490 kts | 334° |
| 2026-05-04 17:45 | 34.49053 | -83.29757 | 43092 ft | 490 kts | 334° |
| 2026-05-04 17:46 | 34.55457 | -83.32414 | 43092 ft | 489 kts | 334° |
| 2026-05-04 17:46 | 34.61983 | -83.35127 | 43090 ft | 489 kts | 334° |
| 2026-05-04 17:47 | 34.68726 | -83.37935 | 43094 ft | 489 kts | 334° |
| 2026-05-04 17:47 | 34.75211 | -83.40639 | 43092 ft | 489 kts | 334° |
| 2026-05-04 17:48 | 34.81678 | -83.43341 | 43105 ft | 489 kts | 334° |
| 2026-05-04 17:48 | 34.88150 | -83.46049 | 43104 ft | 490 kts | 334° |
| 2026-05-04 17:49 | 34.94601 | -83.48753 | 43102 ft | 489 kts | 334° |
| 2026-05-04 17:49 | 35.01040 | -83.51457 | 43099 ft | 490 kts | 334° |
| 2026-05-04 17:50 | 35.07458 | -83.54155 | 43118 ft | 491 kts | 334° |
| 2026-05-04 17:50 | 35.13932 | -83.56883 | 43115 ft | 493 kts | 334° |
| 2026-05-04 17:51 | 35.20404 | -83.59613 | 43108 ft | 492 kts | 334° |
| 2026-05-04 17:51 | 35.26873 | -83.62349 | 43106 ft | 492 kts | 334° |
| 2026-05-04 17:52 | 35.33343 | -83.65088 | 43100 ft | 492 kts | 334° |
| 2026-05-04 17:52 | 35.39823 | -83.67836 | 43098 ft | 492 kts | 334° |
| 2026-05-04 17:53 | 35.46294 | -83.70585 | 43095 ft | 493 kts | 334° |
| 2026-05-04 17:53 | 35.52777 | -83.73344 | 43086 ft | 492 kts | 334° |
| 2026-05-04 17:54 | 35.59237 | -83.76098 | 43080 ft | 492 kts | 334° |
| 2026-05-04 17:54 | 35.65708 | -83.78861 | 43073 ft | 492 kts | 334° |
| 2026-05-04 17:55 | 35.72201 | -83.81639 | 43073 ft | 495 kts | 334° |
| 2026-05-04 17:55 | 35.78704 | -83.84425 | 43070 ft | 494 kts | 334° |
| 2026-05-04 17:56 | 35.85173 | -83.87202 | 43069 ft | 494 kts | 334° |
| 2026-05-04 17:56 | 35.91539 | -83.90313 | 43062 ft | 488 kts | 326° |
| 2026-05-04 17:57 | 35.97361 | -83.94590 | 43064 ft | 486 kts | 323° |
| 2026-05-04 17:57 | 36.03163 | -83.98877 | 43067 ft | 485 kts | 323° |
| 2026-05-04 17:58 | 36.08948 | -84.03187 | 43056 ft | 485 kts | 323° |
| 2026-05-04 17:58 | 36.14711 | -84.07471 | 43052 ft | 485 kts | 323° |
| 2026-05-04 17:59 | 36.20490 | -84.11786 | 43048 ft | 485 kts | 323° |
| 2026-05-04 18:00 | 36.29174 | -84.18274 | 43030 ft | 485 kts | 323° |
| 2026-05-04 18:00 | 36.34955 | -84.22606 | 43026 ft | 485 kts | 323° |
| 2026-05-04 18:01 | 36.40745 | -84.26950 | 43022 ft | 486 kts | 323° |
| 2026-05-04 18:01 | 36.46411 | -84.31209 | 43022 ft | 484 kts | 323° |
| 2026-05-04 18:02 | 36.55072 | -84.37734 | 43023 ft | 486 kts | 323° |
| 2026-05-04 18:02 | 36.60850 | -84.42096 | 43015 ft | 485 kts | 323° |
| 2026-05-04 18:03 | 36.66615 | -84.46457 | 43013 ft | 486 kts | 323° |
| 2026-05-04 18:03 | 36.72399 | -84.50839 | 43009 ft | 486 kts | 323° |
| 2026-05-04 18:04 | 36.77236 | -84.54510 | 43006 ft | 486 kts | 323° |
| 2026-05-04 18:05 | 36.86012 | -84.61185 | 42979 ft | 486 kts | 323° |
| 2026-05-04 18:05 | 36.91850 | -84.65635 | 42987 ft | 485 kts | 323° |
| 2026-05-04 18:06 | 37.00623 | -84.72337 | 42978 ft | 486 kts | 323° |
| 2026-05-04 18:06 | 37.06429 | -84.76784 | 42979 ft | 486 kts | 323° |
| 2026-05-04 18:07 | 37.12236 | -84.81238 | 42973 ft | 485 kts | 323° |
| 2026-05-04 18:07 | 37.18005 | -84.85673 | 42968 ft | 486 kts | 323° |
| 2026-05-04 18:08 | 37.23813 | -84.90144 | 42972 ft | 486 kts | 323° |
| 2026-05-04 18:08 | 37.29659 | -84.94654 | 42971 ft | 486 kts | 323° |
| 2026-05-04 18:09 | 37.41225 | -85.03600 | 42976 ft | 486 kts | 323° |
| 2026-05-04 18:10 | 37.46973 | -85.08059 | 42979 ft | 486 kts | 323° |
| 2026-05-04 18:10 | 37.52769 | -85.12561 | 42970 ft | 486 kts | 323° |
| 2026-05-04 18:11 | 37.58564 | -85.17072 | 42961 ft | 486 kts | 323° |
| 2026-05-04 18:11 | 37.64315 | -85.21558 | 42958 ft | 486 kts | 323° |
| 2026-05-04 18:12 | 37.70067 | -85.26051 | 42954 ft | 487 kts | 323° |
| 2026-05-04 18:12 | 37.75038 | -85.29943 | 42950 ft | 486 kts | 323° |
| 2026-05-04 18:13 | 37.80800 | -85.34461 | 42937 ft | 489 kts | 323° |
| 2026-05-04 18:14 | 37.89516 | -85.41309 | 42918 ft | 488 kts | 323° |
| 2026-05-04 18:14 | 37.95369 | -85.45920 | 42913 ft | 488 kts | 323° |
| 2026-05-04 18:15 | 38.06983 | -85.55096 | 42904 ft | 488 kts | 323° |
| 2026-05-04 18:16 | 38.12983 | -85.59323 | 42891 ft | 492 kts | 330° |
| 2026-05-04 18:16 | 38.19213 | -85.62939 | 42901 ft | 493 kts | 330° |
| 2026-05-04 18:17 | 38.28591 | -85.68462 | 42899 ft | 492 kts | 330° |
| 2026-05-04 18:18 | 38.38005 | -85.74017 | 42870 ft | 493 kts | 330° |
| 2026-05-04 18:18 | 38.44264 | -85.77708 | 42866 ft | 492 kts | 330° |
| 2026-05-04 18:19 | 38.53632 | -85.83259 | 42871 ft | 492 kts | 330° |
| 2026-05-04 18:19 | 38.59935 | -85.86999 | 42869 ft | 493 kts | 330° |
| 2026-05-04 18:20 | 38.66193 | -85.90722 | 42885 ft | 493 kts | 330° |
| 2026-05-04 18:20 | 38.71409 | -85.93829 | 42883 ft | 493 kts | 330° |
| 2026-05-04 18:21 | 38.77671 | -85.97568 | 42889 ft | 494 kts | 330° |
| 2026-05-04 18:21 | 38.83962 | -86.01329 | 42883 ft | 493 kts | 330° |
| 2026-05-04 18:22 | 38.90178 | -86.05055 | 42882 ft | 492 kts | 330° |
| 2026-05-04 18:22 | 38.96350 | -86.08759 | 42876 ft | 492 kts | 330° |
| 2026-05-04 18:23 | 39.02588 | -86.12513 | 42871 ft | 492 kts | 330° |
| 2026-05-04 18:23 | 39.08788 | -86.16249 | 42871 ft | 492 kts | 330° |
| 2026-05-04 18:24 | 39.14995 | -86.19998 | 42869 ft | 492 kts | 330° |
| 2026-05-04 18:24 | 39.21196 | -86.23749 | 42869 ft | 492 kts | 330° |
| 2026-05-04 18:25 | 39.27403 | -86.27512 | 42865 ft | 492 kts | 330° |
| 2026-05-04 18:25 | 39.33660 | -86.31312 | 42861 ft | 493 kts | 330° |
| 2026-05-04 18:26 | 39.39925 | -86.35126 | 42858 ft | 494 kts | 330° |
| 2026-05-04 18:26 | 39.46147 | -86.38920 | 42846 ft | 494 kts | 330° |
| 2026-05-04 18:27 | 39.52363 | -86.42719 | 42849 ft | 494 kts | 330° |
| 2026-05-04 18:27 | 39.58629 | -86.46554 | 42842 ft | 494 kts | 330° |
| 2026-05-04 18:28 | 39.64852 | -86.50374 | 42846 ft | 493 kts | 330° |
| 2026-05-04 18:28 | 39.71100 | -86.54214 | 42836 ft | 494 kts | 330° |
| 2026-05-04 18:29 | 39.77362 | -86.58072 | 42839 ft | 494 kts | 330° |
| 2026-05-04 18:29 | 39.83566 | -86.61901 | 42832 ft | 493 kts | 330° |
| 2026-05-04 18:30 | 39.92886 | -86.67668 | 42817 ft | 494 kts | 330° |
| 2026-05-04 18:31 | 39.99105 | -86.71526 | 42806 ft | 494 kts | 329° |
| 2026-05-04 18:31 | 40.05311 | -86.75384 | 42785 ft | 493 kts | 329° |
| 2026-05-04 18:32 | 40.11470 | -86.79221 | 42780 ft | 494 kts | 329° |
| 2026-05-04 18:32 | 40.17680 | -86.83098 | 42777 ft | 494 kts | 329° |
| 2026-05-04 18:33 | 40.23928 | -86.87006 | 42772 ft | 493 kts | 329° |
| 2026-05-04 18:33 | 40.30116 | -86.90885 | 42768 ft | 494 kts | 329° |
| 2026-05-04 18:34 | 40.36326 | -86.94785 | 42759 ft | 494 kts | 329° |
| 2026-05-04 18:34 | 40.42524 | -86.98686 | 42754 ft | 493 kts | 329° |
| 2026-05-04 18:35 | 40.48719 | -87.02594 | 42748 ft | 493 kts | 329° |
| 2026-05-04 18:35 | 40.55006 | -87.06274 | 42730 ft | 498 kts | 336° |
| 2026-05-04 18:36 | 40.61872 | -87.07975 | 42747 ft | 505 kts | 348° |
| 2026-05-04 18:36 | 40.68868 | -87.09077 | 42748 ft | 507 kts | 347° |
| 2026-05-04 18:37 | 40.75828 | -87.10226 | 42732 ft | 506 kts | 348° |
| 2026-05-04 18:37 | 40.82875 | -87.11349 | 42720 ft | 506 kts | 347° |
| 2026-05-04 18:38 | 40.89871 | -87.12499 | 42713 ft | 507 kts | 348° |
| 2026-05-04 18:38 | 40.96922 | -87.13635 | 42702 ft | 506 kts | 347° |
| 2026-05-04 18:39 | 41.03903 | -87.14783 | 42708 ft | 507 kts | 348° |
| 2026-05-04 18:39 | 41.09791 | -87.15535 | 42709 ft | 508 kts | 349° |
| 2026-05-04 18:40 | 41.16844 | -87.16371 | 42711 ft | 509 kts | 349° |
| 2026-05-04 18:40 | 41.23906 | -87.17211 | 42703 ft | 508 kts | 349° |
| 2026-05-04 18:41 | 41.30955 | -87.18047 | 42692 ft | 508 kts | 349° |
| 2026-05-04 18:41 | 41.38005 | -87.18890 | 42686 ft | 508 kts | 349° |
| 2026-05-04 18:42 | 41.45006 | -87.19723 | 42681 ft | 508 kts | 349° |
| 2026-05-04 18:42 | 41.52104 | -87.20576 | 42677 ft | 508 kts | 349° |
| 2026-05-04 18:43 | 41.59220 | -87.21427 | 42672 ft | 508 kts | 349° |
| 2026-05-04 18:43 | 41.66155 | -87.22261 | 42644 ft | 498 kts | 349° |
| 2026-05-04 18:43 | 41.69393 | -87.22629 | 41758 ft | 439 kts | 349° |
| 2026-05-04 18:44 | 41.72314 | -87.22966 | 39189 ft | 409 kts | 348° |
| 2026-05-04 18:44 | 41.74573 | -87.23257 | 35946 ft | 401 kts | 347° |
| 2026-05-04 18:44 | 41.78599 | -87.23810 | 30844 ft | 469 kts | 349° |
| 2026-05-04 18:44 | 41.81977 | -87.24190 | 29197 ft | 478 kts | 351° |
| 2026-05-04 18:45 | 41.84797 | -87.24469 | 29157 ft | 445 kts | 350° |
| 2026-05-04 18:45 | 41.87745 | -87.24817 | 29163 ft | 405 kts | 348° |
| 2026-05-04 18:45 | 41.90486 | -87.25191 | 29156 ft | 376 kts | 348° |
| 2026-05-04 18:45 | 41.93049 | -87.25515 | 29153 ft | 359 kts | 348° |
| 2026-05-04 18:46 | 41.95529 | -87.25809 | 29151 ft | 360 kts | 348° |
| 2026-05-04 18:46 | 41.98090 | -87.26130 | 29161 ft | 379 kts | 348° |
| 2026-05-04 18:46 | 42.00760 | -87.26460 | 29172 ft | 389 kts | 348° |
| 2026-05-04 18:47 | 42.06178 | -87.27101 | 29172 ft | 388 kts | 348° |
| 2026-05-04 18:47 | 42.09006 | -87.27466 | 28746 ft | 419 kts | 348° |
| 2026-05-04 18:47 | 42.11971 | -87.27844 | 28178 ft | 444 kts | 349° |
| 2026-05-04 18:47 | 42.15018 | -87.28192 | 27581 ft | 442 kts | 349° |
| 2026-05-04 18:48 | 42.18064 | -87.28538 | 26984 ft | 436 kts | 349° |
| 2026-05-04 18:48 | 42.21083 | -87.28919 | 26401 ft | 433 kts | 348° |
| 2026-05-04 18:48 | 42.24080 | -87.29303 | 25823 ft | 430 kts | 348° |
| 2026-05-04 18:48 | 42.27068 | -87.29665 | 25250 ft | 427 kts | 349° |
| 2026-05-04 18:49 | 42.30023 | -87.30018 | 24682 ft | 425 kts | 349° |
| 2026-05-04 18:49 | 42.33004 | -87.30387 | 24104 ft | 422 kts | 348° |
| 2026-05-04 18:49 | 42.35953 | -87.30754 | 23531 ft | 419 kts | 348° |
| 2026-05-04 18:49 | 42.38847 | -87.31109 | 22979 ft | 416 kts | 348° |
| 2026-05-04 18:50 | 42.41692 | -87.31458 | 22435 ft | 413 kts | 348° |
| 2026-05-04 18:50 | 42.44546 | -87.31810 | 21882 ft | 410 kts | 348° |
| 2026-05-04 18:50 | 42.47388 | -87.32163 | 21329 ft | 407 kts | 348° |
| 2026-05-04 18:50 | 42.50199 | -87.32509 | 20787 ft | 404 kts | 348° |
| 2026-05-04 18:51 | 42.52996 | -87.32854 | 20253 ft | 401 kts | 348° |
| 2026-05-04 18:51 | 42.55776 | -87.33199 | 19719 ft | 398 kts | 348° |
| 2026-05-04 18:51 | 42.58526 | -87.33540 | 19194 ft | 395 kts | 348° |
| 2026-05-04 18:51 | 42.61255 | -87.33879 | 18665 ft | 393 kts | 348° |
| 2026-05-04 18:52 | 42.63964 | -87.34214 | 18146 ft | 389 kts | 348° |
| 2026-05-04 18:52 | 42.66664 | -87.34549 | 17625 ft | 387 kts | 348° |
| 2026-05-04 18:52 | 42.69320 | -87.34947 | 17107 ft | 380 kts | 343° |
| 2026-05-04 18:52 | 42.71751 | -87.36150 | 16597 ft | 367 kts | 326° |
| 2026-05-04 18:53 | 42.73770 | -87.38159 | 16130 ft | 355 kts | 310° |
| 2026-05-04 18:53 | 42.75276 | -87.40769 | 15660 ft | 348 kts | 296° |
| 2026-05-04 18:53 | 42.76199 | -87.43767 | 15190 ft | 339 kts | 282° |
| 2026-05-04 18:53 | 42.76514 | -87.46923 | 14741 ft | 336 kts | 269° |
| 2026-05-04 18:54 | 42.76225 | -87.50066 | 14293 ft | 334 kts | 256° |
| 2026-05-04 18:54 | 42.75365 | -87.52980 | 13849 ft | 333 kts | 242° |
| 2026-05-04 18:54 | 42.74504 | -87.54711 | 13556 ft | 334 kts | 233° |
| 2026-05-04 18:54 | 42.72971 | -87.56741 | 13147 ft | 336 kts | 221° |
| 2026-05-04 18:55 | 42.71089 | -87.58650 | 12702 ft | 335 kts | 219° |
| 2026-05-04 18:55 | 42.67388 | -87.62435 | 11811 ft | 330 kts | 220° |
| 2026-05-04 18:55 | 42.65555 | -87.64302 | 11371 ft | 328 kts | 219° |
| 2026-05-04 18:56 | 42.63732 | -87.66150 | 10930 ft | 326 kts | 219° |
| 2026-05-04 18:56 | 42.61945 | -87.67963 | 10504 ft | 310 kts | 219° |
| 2026-05-04 18:56 | 42.60288 | -87.69648 | 10112 ft | 287 kts | 219° |
| 2026-05-04 18:56 | 42.58750 | -87.71210 | 9754 ft | 266 kts | 219° |
| 2026-05-04 18:57 | 42.57299 | -87.72686 | 9421 ft | 257 kts | 219° |
| 2026-05-04 18:57 | 42.55880 | -87.74128 | 9088 ft | 255 kts | 219° |
| 2026-05-04 18:57 | 42.54457 | -87.75572 | 8761 ft | 256 kts | 219° |
| 2026-05-04 18:57 | 42.53016 | -87.77031 | 8418 ft | 259 kts | 219° |
| 2026-05-04 18:58 | 42.51629 | -87.78434 | 8085 ft | 260 kts | 219° |
| 2026-05-04 18:58 | 42.50158 | -87.79922 | 7737 ft | 260 kts | 219° |
| 2026-05-04 18:58 | 42.48716 | -87.81382 | 7393 ft | 259 kts | 218° |
| 2026-05-04 18:58 | 42.47257 | -87.82856 | 7049 ft | 258 kts | 218° |
| 2026-05-04 18:59 | 42.45826 | -87.84296 | 6705 ft | 256 kts | 218° |
| 2026-05-04 18:59 | 42.44471 | -87.85663 | 6374 ft | 255 kts | 218° |
| 2026-05-04 18:59 | 42.43026 | -87.87123 | 6035 ft | 253 kts | 218° |
| 2026-05-04 18:59 | 42.41590 | -87.88572 | 5686 ft | 250 kts | 218° |
| 2026-05-04 19:00 | 42.40196 | -87.89974 | 5370 ft | 249 kts | 218° |
| 2026-05-04 19:00 | 42.38745 | -87.91435 | 5017 ft | 250 kts | 218° |
| 2026-05-04 19:00 | 42.37350 | -87.92839 | 4681 ft | 249 kts | 218° |
| 2026-05-04 19:00 | 42.35896 | -87.94302 | 4623 ft | 240 kts | 217° |
| 2026-05-04 19:01 | 42.34638 | -87.95566 | 4398 ft | 246 kts | 217° |
| 2026-05-04 19:01 | 42.33244 | -87.96969 | 4072 ft | 251 kts | 217° |
| 2026-05-04 19:01 | 42.31831 | -87.98357 | 3749 ft | 248 kts | 214° |
| 2026-05-04 19:01 | 42.30216 | -87.99161 | 3361 ft | 221 kts | 192° |
| 2026-05-04 19:02 | 42.28772 | -87.99092 | 3127 ft | 228 kts | 173° |
| 2026-05-04 19:02 | 42.27175 | -87.98411 | 2815 ft | 226 kts | 162° |
| 2026-05-04 19:02 | 42.25816 | -87.97668 | 2664 ft | 181 kts | 162° |
| 2026-05-04 19:02 | 42.24973 | -87.97215 | 2669 ft | 158 kts | 163° |
| 2026-05-04 19:03 | 42.24005 | -87.96720 | 2641 ft | 129 kts | 166° |
| 2026-05-04 19:03 | 42.23294 | -87.96360 | 2664 ft | 126 kts | 166° |
| 2026-05-04 19:03 | 42.22442 | -87.95914 | 2685 ft | 120 kts | 167° |
| 2026-05-04 19:03 | 42.21643 | -87.95506 | 2599 ft | 126 kts | 166° |
| 2026-05-04 19:04 | 42.20743 | -87.95033 | 2408 ft | 131 kts | 165° |
| 2026-05-04 19:04 | 42.19891 | -87.94604 | 2252 ft | 128 kts | 165° |
| 2026-05-04 19:04 | 42.19023 | -87.94153 | 2070 ft | 130 kts | 164° |
| 2026-05-04 19:04 | 42.18219 | -87.93739 | 1883 ft | 129 kts | 165° |
| 2026-05-04 19:05 | 42.17349 | -87.93287 | 1724 ft | 126 kts | 166° |
| 2026-05-04 19:05 | 42.16431 | -87.92842 | 1513 ft | 125 kts | 167° |
| 2026-05-04 19:05 | 42.15665 | -87.92461 | 1358 ft | 122 kts | 164° |
| 2026-05-04 19:05 | 42.14884 | -87.92046 | 1196 ft | 122 kts | 164° |
| 2026-05-04 19:06 | 42.14100 | -87.91627 | 1041 ft | 121 kts | 164° |
| 2026-05-04 19:06 | 42.13282 | -87.91208 | 930 ft | 127 kts | 164° |
| 2026-05-04 19:06 | 42.12462 | -87.90783 | 722 ft | 127 kts | 163° |
| 2026-05-04 19:06 | 42.11707 | -87.90375 | 635 ft | 108 kts | 161° |
| 2026-05-04 19:07 | 42.11479 | -87.90266 | 639 ft | 99 kts | 158° |